ICE126 EGKK-BIKF

Flight info

Callsign ICE126
Flight time 2h 45m
Altitude 38000
Route LAM1Z LAM L10 BPK UN601 RIBEL DCT ERSON DCT BARKU DCT RATSU/M076F380 DCT ING DCT NASBU NASBU5N
Aircraft A20N/M-SDE2E3FGHIRWXY/LB1

Departure

Time 2026-05-08 03:15
Airport London Gatwick Airport (EGKK)

Arrival

Time 2026-05-08 06:01
Airport Keflavik International Airport (BIKF)
Time Latitude Longitude Altitude Speed Heading
2026-05-08 02:52 51.15580 -0.17680 218 ft 0 kts 348°
2026-05-08 03:08 51.15559 -0.17674 214 ft 4 kts 357°
2026-05-08 03:08 51.15533 -0.17677 215 ft 4 kts 20°
2026-05-08 03:08 51.15513 -0.17699 219 ft 4 kts 70°
2026-05-08 03:09 51.15511 -0.17707 219 ft 1 kts 78°
2026-05-08 03:10 51.15511 -0.17706 219 ft 0 kts 78°
2026-05-08 03:10 51.15517 -0.17670 213 ft 9 kts 73°
2026-05-08 03:10 51.15529 -0.17581 210 ft 9 kts 78°
2026-05-08 03:10 51.15534 -0.17466 207 ft 12 kts 112°
2026-05-08 03:11 51.15454 -0.17405 211 ft 15 kts 168°
2026-05-08 03:11 51.15334 -0.17363 213 ft 19 kts 165°
2026-05-08 03:11 51.15229 -0.17363 215 ft 7 kts 228°
2026-05-08 03:11 51.15201 -0.17555 217 ft 37 kts 258°
2026-05-08 03:12 51.15120 -0.18144 213 ft 71 kts 258°
2026-05-08 03:12 51.15007 -0.18965 213 ft 52 kts 257°
2026-05-08 03:12 51.14951 -0.19370 213 ft 33 kts 258°
2026-05-08 03:12 51.14895 -0.19717 217 ft 31 kts 257°
2026-05-08 03:13 51.14856 -0.20053 215 ft 31 kts 259°
2026-05-08 03:13 51.14811 -0.20386 213 ft 30 kts 258°
2026-05-08 03:13 51.14766 -0.20710 213 ft 30 kts 257°
2026-05-08 03:13 51.14719 -0.20953 216 ft 15 kts 222°
2026-05-08 03:14 51.14701 -0.20968 214 ft 2 kts 193°
2026-05-08 03:14 51.14682 -0.20967 211 ft 4 kts 173°
2026-05-08 03:14 51.14649 -0.20956 210 ft 8 kts 165°
2026-05-08 03:14 51.14577 -0.20819 210 ft 25 kts 92°
2026-05-08 03:15 51.14628 -0.20383 211 ft 69 kts 78°
2026-05-08 03:15 51.14792 -0.19197 210 ft 151 kts 78°
2026-05-08 03:15 51.15033 -0.17323 591 ft 179 kts 74°
2026-05-08 03:15 51.15306 -0.15392 1565 ft 175 kts 79°
2026-05-08 03:16 51.15583 -0.13503 2413 ft 184 kts 79°
2026-05-08 03:16 51.15886 -0.11364 2758 ft 213 kts 78°
2026-05-08 03:16 51.16228 -0.08884 3078 ft 246 kts 78°
2026-05-08 03:16 51.16879 -0.06253 3819 ft 263 kts 60°
2026-05-08 03:17 51.17928 -0.03827 4553 ft 267 kts 54°
2026-05-08 03:17 51.19069 -0.01471 4932 ft 269 kts 53°
2026-05-08 03:17 51.20227 0.00882 4915 ft 270 kts 52°
2026-05-08 03:17 51.21391 0.03256 4911 ft 271 kts 53°
2026-05-08 03:18 51.22531 0.05598 4900 ft 271 kts 53°
2026-05-08 03:18 51.23682 0.07976 4893 ft 271 kts 53°
2026-05-08 03:18 51.24732 0.10459 4884 ft 270 kts 65°
2026-05-08 03:18 51.25315 0.13287 4875 ft 268 kts 78°
2026-05-08 03:19 51.25689 0.16215 4863 ft 269 kts 80°
2026-05-08 03:19 51.26028 0.19158 4855 ft 269 kts 81°
2026-05-08 03:19 51.26364 0.22095 4846 ft 269 kts 81°
2026-05-08 03:19 51.26702 0.25022 4837 ft 269 kts 80°
2026-05-08 03:20 51.27044 0.27960 4829 ft 269 kts 80°
2026-05-08 03:20 51.27405 0.30900 4823 ft 269 kts 77°
2026-05-08 03:20 51.28122 0.33603 4814 ft 270 kts 55°
2026-05-08 03:20 51.29490 0.35581 4826 ft 269 kts 27°
2026-05-08 03:21 51.31298 0.36336 4831 ft 269 kts 359°
2026-05-08 03:21 51.33128 0.35772 4999 ft 269 kts 340°
2026-05-08 03:21 51.34882 0.34681 4988 ft 272 kts 338°
2026-05-08 03:21 51.36637 0.33501 4991 ft 273 kts 337°
2026-05-08 03:22 51.38375 0.32335 4991 ft 274 kts 338°
2026-05-08 03:22 51.40137 0.31168 4992 ft 274 kts 338°
2026-05-08 03:22 51.41898 0.30011 5000 ft 274 kts 338°
2026-05-08 03:22 51.43677 0.28848 5370 ft 277 kts 338°
2026-05-08 03:23 51.45462 0.27684 5845 ft 275 kts 338°
2026-05-08 03:23 51.47211 0.26544 5994 ft 274 kts 338°
2026-05-08 03:23 51.48982 0.25390 5991 ft 274 kts 338°
2026-05-08 03:23 51.50753 0.24235 5995 ft 275 kts 338°
2026-05-08 03:24 51.52521 0.23082 5997 ft 275 kts 338°
2026-05-08 03:24 51.54297 0.21922 5991 ft 275 kts 338°
2026-05-08 03:24 51.56066 0.20766 6056 ft 275 kts 338°
2026-05-08 03:24 51.57840 0.19606 6071 ft 275 kts 339°
2026-05-08 03:25 51.59609 0.18448 6073 ft 275 kts 339°
2026-05-08 03:25 51.61388 0.17283 6073 ft 275 kts 339°
2026-05-08 03:25 51.63159 0.16104 6073 ft 276 kts 336°
2026-05-08 03:25 51.64752 0.14401 6212 ft 278 kts 316°
2026-05-08 03:26 51.66035 0.12050 6970 ft 280 kts 307°
2026-05-08 03:26 51.67140 0.09515 8173 ft 273 kts 302°
2026-05-08 03:26 51.68130 0.06983 9383 ft 268 kts 299°
2026-05-08 03:26 51.69095 0.04414 10465 ft 268 kts 298°
2026-05-08 03:27 51.70092 0.01751 10943 ft 290 kts 299°
2026-05-08 03:27 51.71179 -0.01111 11314 ft 314 kts 300°
2026-05-08 03:27 51.72369 -0.04170 11875 ft 330 kts 300°
2026-05-08 03:27 51.73636 -0.07319 12720 ft 337 kts 304°
2026-05-08 03:28 51.75161 -0.10160 13618 ft 344 kts 315°
2026-05-08 03:28 51.77083 -0.12621 14427 ft 351 kts 322°
2026-05-08 03:28 51.79150 -0.14848 15189 ft 357 kts 326°
2026-05-08 03:28 51.81290 -0.16936 15957 ft 363 kts 327°
2026-05-08 03:29 51.83483 -0.18978 16736 ft 367 kts 328°
2026-05-08 03:29 51.85692 -0.21011 17466 ft 372 kts 328°
2026-05-08 03:29 51.87952 -0.23101 18190 ft 377 kts 327°
2026-05-08 03:29 51.90240 -0.25241 18832 ft 382 kts 327°
2026-05-08 03:30 51.94878 -0.29646 20148 ft 389 kts 327°
2026-05-08 03:30 51.99582 -0.34163 21456 ft 396 kts 327°
2026-05-08 03:31 52.04336 -0.38745 22666 ft 403 kts 327°
2026-05-08 03:31 52.09214 -0.43455 23768 ft 410 kts 327°
2026-05-08 03:32 52.11646 -0.45805 24222 ft 413 kts 327°
2026-05-08 03:32 52.13536 -0.47633 24577 ft 415 kts 327°
2026-05-08 03:32 52.16049 -0.50064 25040 ft 418 kts 327°
2026-05-08 03:32 52.18555 -0.52493 25493 ft 420 kts 327°
2026-05-08 03:33 52.21039 -0.54902 25915 ft 423 kts 327°
2026-05-08 03:33 52.23597 -0.57389 26341 ft 425 kts 326°
2026-05-08 03:33 52.26145 -0.59871 26754 ft 427 kts 326°
2026-05-08 03:33 52.28688 -0.62353 27167 ft 430 kts 326°
2026-05-08 03:34 52.31292 -0.64901 27552 ft 433 kts 326°
2026-05-08 03:34 52.33900 -0.67454 27945 ft 435 kts 326°
2026-05-08 03:34 52.36474 -0.69977 28317 ft 437 kts 326°
2026-05-08 03:34 52.39061 -0.72514 28702 ft 440 kts 326°
2026-05-08 03:35 52.41703 -0.75107 29041 ft 442 kts 326°
2026-05-08 03:35 52.44365 -0.77723 29390 ft 444 kts 326°
2026-05-08 03:35 52.47025 -0.80340 29723 ft 446 kts 326°
2026-05-08 03:35 52.49688 -0.82963 30052 ft 449 kts 326°
2026-05-08 03:36 52.52368 -0.85606 30416 ft 448 kts 326°
2026-05-08 03:36 52.55036 -0.88242 30823 ft 447 kts 326°
2026-05-08 03:36 52.57699 -0.90876 31208 ft 446 kts 326°
2026-05-08 03:36 52.60357 -0.93509 31578 ft 445 kts 326°
2026-05-08 03:37 52.62963 -0.96096 31930 ft 444 kts 326°
2026-05-08 03:37 52.65638 -0.98757 32298 ft 443 kts 326°
2026-05-08 03:37 52.68273 -1.01381 32660 ft 441 kts 326°
2026-05-08 03:37 52.70866 -1.03968 33067 ft 439 kts 326°
2026-05-08 03:38 52.73477 -1.06576 33433 ft 438 kts 326°
2026-05-08 03:38 52.76075 -1.09176 33749 ft 438 kts 326°
2026-05-08 03:38 52.78689 -1.11795 33994 ft 439 kts 326°
2026-05-08 03:38 52.81299 -1.14415 34215 ft 439 kts 326°
2026-05-08 03:39 52.83911 -1.17040 34461 ft 439 kts 326°
2026-05-08 03:39 52.86525 -1.19670 34701 ft 438 kts 326°
2026-05-08 03:39 52.89131 -1.22296 34920 ft 438 kts 326°
2026-05-08 03:39 52.91743 -1.24932 35124 ft 438 kts 326°
2026-05-08 03:40 52.94344 -1.27559 35340 ft 438 kts 326°
2026-05-08 03:40 52.96949 -1.30196 35525 ft 439 kts 326°
2026-05-08 03:40 52.99557 -1.32838 35722 ft 439 kts 326°
2026-05-08 03:40 53.02163 -1.35481 35886 ft 440 kts 325°
2026-05-08 03:41 53.04773 -1.38133 36039 ft 441 kts 325°
2026-05-08 03:41 53.07356 -1.40759 36223 ft 440 kts 325°
2026-05-08 03:41 53.09973 -1.43425 36421 ft 440 kts 325°
2026-05-08 03:41 53.12581 -1.46085 36587 ft 440 kts 325°
2026-05-08 03:42 53.15206 -1.48766 36738 ft 441 kts 325°
2026-05-08 03:42 53.17821 -1.51442 36886 ft 441 kts 325°
2026-05-08 03:42 53.20431 -1.54115 37081 ft 440 kts 325°
2026-05-08 03:42 53.23038 -1.56789 37305 ft 439 kts 325°
2026-05-08 03:43 53.25633 -1.59455 37479 ft 439 kts 324°
2026-05-08 03:43 53.28242 -1.62140 37593 ft 439 kts 324°
2026-05-08 03:43 53.30846 -1.64826 37730 ft 440 kts 324°
2026-05-08 03:43 53.33450 -1.67515 37860 ft 440 kts 324°
2026-05-08 03:44 53.36054 -1.70210 38012 ft 440 kts 324°
2026-05-08 03:44 53.41240 -1.75590 38049 ft 441 kts 324°
2026-05-08 03:45 53.46445 -1.81001 38051 ft 440 kts 324°
2026-05-08 03:45 53.51643 -1.86419 38042 ft 440 kts 324°
2026-05-08 03:46 53.56840 -1.91847 38041 ft 440 kts 324°
2026-05-08 03:46 53.62034 -1.97291 38042 ft 440 kts 324°
2026-05-08 03:47 53.67229 -2.02759 38044 ft 439 kts 324°
2026-05-08 03:47 53.72421 -2.08235 38053 ft 440 kts 325°
2026-05-08 03:48 53.77968 -2.12734 38033 ft 443 kts 333°
2026-05-08 03:48 53.83675 -2.16717 38038 ft 444 kts 334°
2026-05-08 03:49 53.89404 -2.20600 38038 ft 444 kts 334°
2026-05-08 03:49 53.95148 -2.24511 38044 ft 444 kts 334°
2026-05-08 03:50 54.00843 -2.28422 38037 ft 444 kts 334°
2026-05-08 03:50 54.06501 -2.32610 38040 ft 443 kts 332°
2026-05-08 03:51 54.12107 -2.36990 38036 ft 443 kts 332°
2026-05-08 03:51 54.17711 -2.41387 38035 ft 443 kts 332°
2026-05-08 03:52 54.23319 -2.45768 38048 ft 443 kts 332°
2026-05-08 03:52 54.28936 -2.50151 38039 ft 444 kts 332°
2026-05-08 03:53 54.34527 -2.54524 38036 ft 444 kts 332°
2026-05-08 03:53 54.40142 -2.58930 38032 ft 444 kts 332°
2026-05-08 03:54 54.45754 -2.63348 38028 ft 444 kts 332°
2026-05-08 03:54 54.51374 -2.67786 38030 ft 445 kts 331°
2026-05-08 03:55 54.56998 -2.72239 38028 ft 444 kts 332°
2026-05-08 03:55 54.62623 -2.76709 38026 ft 444 kts 331°
2026-05-08 03:56 54.68237 -2.81182 38023 ft 444 kts 331°
2026-05-08 03:56 54.73856 -2.85674 38028 ft 444 kts 331°
2026-05-08 03:57 54.79433 -2.90146 38022 ft 444 kts 331°
2026-05-08 03:57 54.85046 -2.94660 38014 ft 444 kts 331°
2026-05-08 03:58 54.90648 -2.99180 38018 ft 444 kts 331°
2026-05-08 03:58 54.96255 -3.03717 38014 ft 444 kts 331°
2026-05-08 03:59 55.01860 -3.08267 38004 ft 445 kts 331°
2026-05-08 03:59 55.07477 -3.12841 38005 ft 445 kts 331°
2026-05-08 04:00 55.13063 -3.17403 37997 ft 445 kts 331°
2026-05-08 04:00 55.18670 -3.21996 38005 ft 445 kts 331°
2026-05-08 04:01 55.24280 -3.26607 38000 ft 445 kts 331°
2026-05-08 04:01 55.29902 -3.31243 38027 ft 446 kts 331°
2026-05-08 04:02 55.35522 -3.35891 37991 ft 446 kts 331°
2026-05-08 04:02 55.41134 -3.40548 37991 ft 446 kts 331°
2026-05-08 04:03 55.46712 -3.45190 37988 ft 446 kts 331°
2026-05-08 04:03 55.55148 -3.52241 37983 ft 447 kts 331°
2026-05-08 04:04 55.60776 -3.56961 37983 ft 448 kts 330°
2026-05-08 04:04 55.66401 -3.61694 37979 ft 447 kts 330°
2026-05-08 04:05 55.72030 -3.66446 37975 ft 447 kts 330°
2026-05-08 04:05 55.77649 -3.71207 37971 ft 448 kts 330°
2026-05-08 04:06 55.83244 -3.75962 37967 ft 448 kts 330°
2026-05-08 04:06 55.88874 -3.80762 37968 ft 448 kts 330°
2026-05-08 04:07 55.94503 -3.85576 37966 ft 448 kts 330°
2026-05-08 04:07 56.00134 -3.90407 37967 ft 448 kts 330°
2026-05-08 04:08 56.05754 -3.95245 37967 ft 448 kts 330°
2026-05-08 04:08 56.11372 -4.00098 37967 ft 448 kts 330°
2026-05-08 04:09 56.16999 -4.04974 37963 ft 449 kts 330°
2026-05-08 04:09 56.22627 -4.09866 37963 ft 449 kts 330°
2026-05-08 04:10 56.28263 -4.14781 37961 ft 450 kts 330°
2026-05-08 04:10 56.33872 -4.19689 37964 ft 451 kts 330°
2026-05-08 04:11 56.39521 -4.24648 37960 ft 451 kts 330°
2026-05-08 04:11 56.45159 -4.29614 37953 ft 451 kts 330°
2026-05-08 04:12 56.50661 -4.35036 37972 ft 448 kts 325°
2026-05-08 04:12 56.56011 -4.40876 37952 ft 449 kts 324°
2026-05-08 04:13 56.61321 -4.46723 37946 ft 449 kts 324°
2026-05-08 04:13 56.66691 -4.52580 37945 ft 449 kts 325°
2026-05-08 04:14 56.71163 -4.57438 37943 ft 449 kts 325°
2026-05-08 04:14 56.76527 -4.63273 37963 ft 449 kts 324°
2026-05-08 04:15 56.81899 -4.69137 37955 ft 450 kts 324°
2026-05-08 04:15 56.87262 -4.75015 37939 ft 450 kts 324°
2026-05-08 04:16 56.92599 -4.80884 37936 ft 450 kts 324°
2026-05-08 04:16 56.97970 -4.86811 37933 ft 450 kts 324°
2026-05-08 04:17 57.03328 -4.92744 37943 ft 450 kts 324°
2026-05-08 04:17 57.08692 -4.98703 37926 ft 450 kts 324°
2026-05-08 04:18 57.14022 -5.04646 37924 ft 450 kts 324°
2026-05-08 04:18 57.19374 -5.10632 37920 ft 450 kts 324°
2026-05-08 04:19 57.24715 -5.16629 37921 ft 450 kts 324°
2026-05-08 04:19 57.30067 -5.22659 37909 ft 450 kts 324°
2026-05-08 04:20 57.35419 -5.28707 37912 ft 451 kts 324°
2026-05-08 04:20 57.40768 -5.34771 37896 ft 450 kts 324°
2026-05-08 04:21 57.46079 -5.40816 37909 ft 450 kts 324°
2026-05-08 04:21 57.51430 -5.46929 37893 ft 452 kts 324°
2026-05-08 04:22 57.56790 -5.53073 37888 ft 452 kts 324°
2026-05-08 04:22 57.62166 -5.59260 37873 ft 453 kts 324°
2026-05-08 04:23 57.67531 -5.65451 37871 ft 453 kts 324°
2026-05-08 04:23 57.72898 -5.71664 37862 ft 453 kts 324°
2026-05-08 04:24 57.78236 -5.77867 37865 ft 453 kts 323°
2026-05-08 04:24 57.83600 -5.84123 37849 ft 454 kts 323°
2026-05-08 04:25 57.88964 -5.90404 37849 ft 454 kts 323°
2026-05-08 04:25 57.94295 -5.96666 37838 ft 454 kts 323°
2026-05-08 04:26 57.99645 -6.02973 37834 ft 454 kts 323°
2026-05-08 04:26 58.05003 -6.09312 37827 ft 454 kts 323°
2026-05-08 04:27 58.10347 -6.15658 37838 ft 453 kts 323°
2026-05-08 04:27 58.15681 -6.22014 37827 ft 453 kts 323°
2026-05-08 04:28 58.21013 -6.28391 37831 ft 453 kts 323°
2026-05-08 04:28 58.26338 -6.34782 37828 ft 453 kts 323°
2026-05-08 04:29 58.31667 -6.41202 37829 ft 453 kts 323°
2026-05-08 04:29 58.36952 -6.47593 37788 ft 453 kts 323°
2026-05-08 04:30 58.42291 -6.54070 37780 ft 453 kts 323°
2026-05-08 04:30 58.47617 -6.60555 37778 ft 453 kts 323°
2026-05-08 04:31 58.52932 -6.67052 37771 ft 453 kts 323°
2026-05-08 04:31 58.58243 -6.73566 37771 ft 453 kts 323°
2026-05-08 04:32 58.63519 -6.80062 37757 ft 453 kts 323°
2026-05-08 04:32 58.68827 -6.86621 37759 ft 453 kts 323°
2026-05-08 04:33 58.74134 -6.93203 37758 ft 453 kts 323°
2026-05-08 04:33 58.79434 -6.99801 37756 ft 453 kts 323°
2026-05-08 04:34 58.84729 -7.06416 37759 ft 453 kts 323°
2026-05-08 04:34 58.90015 -7.13045 37750 ft 453 kts 323°
2026-05-08 04:35 58.95300 -7.19697 37738 ft 453 kts 323°
2026-05-08 04:35 59.00592 -7.26383 37742 ft 453 kts 322°
2026-05-08 04:36 59.05862 -7.33065 37728 ft 453 kts 322°
2026-05-08 04:36 59.11135 -7.39776 37755 ft 453 kts 322°
2026-05-08 04:37 59.16380 -7.46478 37724 ft 453 kts 322°
2026-05-08 04:37 59.21658 -7.53246 37724 ft 453 kts 322°
2026-05-08 04:38 59.26917 -7.60016 37716 ft 453 kts 322°
2026-05-08 04:38 59.32175 -7.66808 37713 ft 453 kts 322°
2026-05-08 04:39 59.37399 -7.73584 37730 ft 453 kts 322°
2026-05-08 04:39 59.42650 -7.80420 37706 ft 453 kts 323°
2026-05-08 04:40 59.47895 -7.87275 37697 ft 452 kts 322°
2026-05-08 04:40 59.53140 -7.94153 37698 ft 452 kts 322°
2026-05-08 04:41 59.58376 -8.01046 37697 ft 452 kts 322°
2026-05-08 04:41 59.63609 -8.07963 37686 ft 452 kts 322°
2026-05-08 04:42 59.68811 -8.14865 37689 ft 452 kts 322°
2026-05-08 04:42 59.74040 -8.21829 37680 ft 452 kts 322°
2026-05-08 04:43 59.79260 -8.28808 37683 ft 452 kts 322°
2026-05-08 04:43 59.84472 -8.35803 37669 ft 452 kts 322°
2026-05-08 04:44 59.89677 -8.42815 37672 ft 452 kts 322°
2026-05-08 04:44 59.94849 -8.49809 37667 ft 452 kts 322°
2026-05-08 04:45 60.00049 -8.56869 37663 ft 452 kts 322°
2026-05-08 04:45 60.05246 -8.63951 37655 ft 452 kts 322°
2026-05-08 04:46 60.10435 -8.71051 37658 ft 451 kts 322°
2026-05-08 04:46 60.15612 -8.78163 37647 ft 451 kts 322°
2026-05-08 04:47 60.20785 -8.85293 37659 ft 451 kts 322°
2026-05-08 04:47 60.25915 -8.92394 37647 ft 451 kts 322°
2026-05-08 04:48 60.31098 -8.99595 37644 ft 451 kts 322°
2026-05-08 04:48 60.36253 -9.06786 37639 ft 451 kts 322°
2026-05-08 04:49 60.41412 -9.14012 37639 ft 451 kts 322°
2026-05-08 04:49 60.45942 -9.20380 37630 ft 451 kts 322°
2026-05-08 04:50 60.46448 -9.21093 37645 ft 451 kts 322°
2026-05-08 04:50 60.51573 -9.28326 37645 ft 451 kts 322°
2026-05-08 04:51 60.56730 -9.35635 37639 ft 451 kts 322°
2026-05-08 04:51 60.61874 -9.42987 37639 ft 451 kts 321°
2026-05-08 04:52 60.66969 -9.50477 37630 ft 451 kts 321°
2026-05-08 04:52 60.72041 -9.58013 37634 ft 451 kts 321°
2026-05-08 04:53 60.77086 -9.65531 37641 ft 449 kts 321°
2026-05-08 04:53 60.82113 -9.73028 37642 ft 449 kts 321°
2026-05-08 04:54 60.87163 -9.80590 37638 ft 449 kts 321°
2026-05-08 04:54 60.92201 -9.88171 37636 ft 449 kts 322°
2026-05-08 04:55 60.97242 -9.95786 37650 ft 449 kts 322°
2026-05-08 04:55 61.01972 -10.04105 37665 ft 446 kts 314°
2026-05-08 04:56 61.06407 -10.13017 37662 ft 446 kts 313°
2026-05-08 04:56 61.10796 -10.22079 37663 ft 446 kts 313°
2026-05-08 04:57 61.15180 -10.31203 37663 ft 447 kts 313°
2026-05-08 04:57 61.19567 -10.40318 37686 ft 446 kts 313°
2026-05-08 04:58 61.23944 -10.49443 37688 ft 446 kts 313°
2026-05-08 04:58 61.28314 -10.58613 37688 ft 445 kts 313°
2026-05-08 04:59 61.31940 -10.66241 37687 ft 445 kts 313°
2026-05-08 04:59 61.36292 -10.75431 37713 ft 445 kts 313°
2026-05-08 05:00 61.40644 -10.84667 37720 ft 445 kts 312°
2026-05-08 05:00 61.44946 -10.93833 37721 ft 445 kts 313°
2026-05-08 05:01 61.49285 -11.03126 37724 ft 445 kts 313°
2026-05-08 05:01 61.53615 -11.12427 37747 ft 446 kts 313°
2026-05-08 05:02 61.57946 -11.21751 37751 ft 446 kts 313°
2026-05-08 05:02 61.62238 -11.31040 37748 ft 445 kts 312°
2026-05-08 05:03 61.66550 -11.40419 37748 ft 445 kts 313°
2026-05-08 05:03 61.70860 -11.49837 37786 ft 446 kts 313°
2026-05-08 05:04 61.75140 -11.59223 37785 ft 445 kts 313°
2026-05-08 05:04 61.79424 -11.68665 37790 ft 444 kts 313°
2026-05-08 05:05 61.83701 -11.78134 37794 ft 445 kts 313°
2026-05-08 05:05 61.87942 -11.87563 37817 ft 445 kts 313°
2026-05-08 05:06 61.92217 -11.97099 37821 ft 445 kts 313°
2026-05-08 05:06 61.96475 -12.06640 37821 ft 445 kts 313°
2026-05-08 05:07 62.00724 -12.16205 37828 ft 444 kts 313°
2026-05-08 05:07 62.04969 -12.25805 37853 ft 444 kts 313°
2026-05-08 05:08 62.09176 -12.35362 37855 ft 445 kts 313°
2026-05-08 05:08 62.13402 -12.45002 37859 ft 444 kts 313°
2026-05-08 05:09 62.17617 -12.54658 37860 ft 443 kts 313°
2026-05-08 05:09 62.21813 -12.64314 37893 ft 443 kts 313°
2026-05-08 05:10 62.28108 -12.78878 37898 ft 444 kts 313°
2026-05-08 05:11 62.32300 -12.88629 37904 ft 442 kts 313°
2026-05-08 05:11 62.36443 -12.98312 37929 ft 442 kts 312°
2026-05-08 05:12 62.40606 -13.08082 37941 ft 442 kts 312°
2026-05-08 05:12 62.44700 -13.17731 37943 ft 442 kts 312°
2026-05-08 05:12 62.46832 -13.22774 36264 ft 439 kts 312°
2026-05-08 05:13 62.48889 -13.27653 38166 ft 439 kts 312°
2026-05-08 05:13 62.50954 -13.32561 37979 ft 441 kts 312°
2026-05-08 05:13 62.52994 -13.37419 37971 ft 442 kts 313°
2026-05-08 05:14 62.57104 -13.47238 37969 ft 437 kts 313°
2026-05-08 05:14 62.61198 -13.57060 37982 ft 438 kts 313°
2026-05-08 05:15 62.65286 -13.66913 37985 ft 439 kts 313°
2026-05-08 05:15 62.69367 -13.76792 38002 ft 439 kts 313°
2026-05-08 05:16 62.73413 -13.86636 38012 ft 438 kts 313°
2026-05-08 05:16 62.77462 -13.96531 38009 ft 435 kts 313°
2026-05-08 05:17 62.81499 -14.06433 38022 ft 437 kts 313°
2026-05-08 05:17 62.85536 -14.16372 38041 ft 438 kts 312°
2026-05-08 05:18 62.89587 -14.26404 38038 ft 438 kts 313°
2026-05-08 05:18 62.93615 -14.36422 38038 ft 437 kts 313°
2026-05-08 05:19 62.97574 -14.46313 38050 ft 432 kts 313°
2026-05-08 05:19 63.01546 -14.56278 38074 ft 432 kts 313°
2026-05-08 05:20 63.05506 -14.66257 38068 ft 433 kts 312°
2026-05-08 05:20 63.09469 -14.76306 38064 ft 432 kts 313°
2026-05-08 05:21 63.13419 -14.86349 38083 ft 432 kts 313°
2026-05-08 05:21 63.17327 -14.96343 38073 ft 428 kts 312°
2026-05-08 05:22 63.21212 -15.06301 38090 ft 431 kts 312°
2026-05-08 05:22 63.25127 -15.16382 38088 ft 433 kts 312°
2026-05-08 05:23 63.29060 -15.26574 38090 ft 434 kts 312°
2026-05-08 05:23 63.32977 -15.36768 38099 ft 433 kts 312°
2026-05-08 05:24 63.36877 -15.46968 38109 ft 432 kts 311°
2026-05-08 05:24 63.40779 -15.57207 38114 ft 434 kts 311°
2026-05-08 05:25 63.44659 -15.67437 38116 ft 435 kts 311°
2026-05-08 05:25 63.48568 -15.77793 38115 ft 435 kts 311°
2026-05-08 05:26 63.52472 -15.88189 38119 ft 435 kts 311°
2026-05-08 05:26 63.56354 -15.98570 38118 ft 435 kts 311°
2026-05-08 05:27 63.60244 -16.09025 38121 ft 435 kts 311°
2026-05-08 05:27 63.64116 -16.19478 38121 ft 435 kts 311°
2026-05-08 05:28 63.67958 -16.29899 38127 ft 435 kts 311°
2026-05-08 05:28 63.71816 -16.40412 38129 ft 435 kts 311°
2026-05-08 05:29 63.75670 -16.50964 38129 ft 435 kts 311°
2026-05-08 05:29 63.79287 -16.61927 38142 ft 437 kts 298°
2026-05-08 05:29 63.80350 -16.68360 38140 ft 439 kts 284°
2026-05-08 05:30 63.80876 -16.75166 38140 ft 441 kts 279°
2026-05-08 05:30 63.81601 -16.89007 38140 ft 443 kts 278°
2026-05-08 05:31 63.82287 -17.02843 38140 ft 444 kts 278°
2026-05-08 05:31 63.82957 -17.16650 38143 ft 444 kts 278°
2026-05-08 05:32 63.83618 -17.30572 38143 ft 444 kts 278°
2026-05-08 05:32 63.84265 -17.44503 38144 ft 443 kts 279°
2026-05-08 05:33 63.84895 -17.58345 38147 ft 440 kts 279°
2026-05-08 05:33 63.85511 -17.72158 38151 ft 440 kts 278°
2026-05-08 05:34 63.86105 -17.85916 38151 ft 440 kts 278°
2026-05-08 05:34 63.86677 -17.99736 38158 ft 440 kts 277°
2026-05-08 05:35 63.87246 -18.13561 38177 ft 440 kts 277°
2026-05-08 05:35 63.87807 -18.27414 38172 ft 440 kts 277°
2026-05-08 05:36 63.88356 -18.41258 38185 ft 440 kts 277°
2026-05-08 05:36 63.88893 -18.55104 38190 ft 440 kts 277°
2026-05-08 05:37 63.89416 -18.68942 38192 ft 440 kts 277°
2026-05-08 05:37 63.89926 -18.82809 38213 ft 441 kts 277°
2026-05-08 05:37 63.90177 -18.89768 37666 ft 443 kts 277°
2026-05-08 05:38 63.90427 -18.96793 36694 ft 449 kts 277°
2026-05-08 05:38 63.90675 -19.03891 35805 ft 453 kts 277°
2026-05-08 05:38 63.90921 -19.11054 35007 ft 455 kts 278°
2026-05-08 05:38 63.91161 -19.18121 34291 ft 452 kts 279°
2026-05-08 05:39 63.91408 -19.25183 33137 ft 446 kts 279°
2026-05-08 05:39 63.91649 -19.32238 32199 ft 435 kts 279°
2026-05-08 05:39 63.91870 -19.38920 31242 ft 426 kts 279°
2026-05-08 05:39 63.92087 -19.45597 30288 ft 418 kts 280°
2026-05-08 05:40 63.92296 -19.52125 29179 ft 410 kts 280°
2026-05-08 05:40 63.92497 -19.58517 28089 ft 402 kts 279°
2026-05-08 05:40 63.92692 -19.64815 26995 ft 397 kts 279°
2026-05-08 05:40 63.92880 -19.71004 26041 ft 388 kts 279°
2026-05-08 05:41 63.93064 -19.77095 25216 ft 380 kts 279°
2026-05-08 05:41 63.93234 -19.82954 24722 ft 363 kts 278°
2026-05-08 05:41 63.93393 -19.88485 24270 ft 349 kts 279°
2026-05-08 05:41 63.93549 -19.94030 23763 ft 344 kts 279°
2026-05-08 05:42 63.93702 -19.99447 23268 ft 342 kts 279°
2026-05-08 05:42 63.93850 -20.04742 22824 ft 338 kts 279°
2026-05-08 05:42 63.93997 -20.10038 22378 ft 334 kts 279°
2026-05-08 05:42 63.94140 -20.15302 21935 ft 331 kts 279°
2026-05-08 05:43 63.94280 -20.20491 21487 ft 328 kts 279°
2026-05-08 05:43 63.94418 -20.25666 21051 ft 325 kts 278°
2026-05-08 05:43 63.94552 -20.30786 20615 ft 323 kts 278°
2026-05-08 05:43 63.94528 -20.35896 20236 ft 323 kts 269°
2026-05-08 05:44 63.94234 -20.40954 19853 ft 322 kts 266°
2026-05-08 05:44 63.93874 -20.45981 19411 ft 321 kts 265°
2026-05-08 05:44 63.93503 -20.50995 18970 ft 320 kts 265°
2026-05-08 05:44 63.93137 -20.55934 18534 ft 320 kts 265°
2026-05-08 05:45 63.92765 -20.60964 18047 ft 318 kts 265°
2026-05-08 05:45 63.92402 -20.65853 17621 ft 315 kts 264°
2026-05-08 05:45 63.92039 -20.70737 17205 ft 313 kts 264°
2026-05-08 05:45 63.91678 -20.75581 16737 ft 310 kts 265°
2026-05-08 05:46 63.91315 -20.80424 16337 ft 308 kts 265°
2026-05-08 05:46 63.90957 -20.85200 15909 ft 306 kts 265°
2026-05-08 05:46 63.90718 -20.88369 15620 ft 305 kts 265°
2026-05-08 05:46 63.90361 -20.93125 15252 ft 309 kts 263°
2026-05-08 05:47 63.89997 -20.97953 14779 ft 310 kts 264°
2026-05-08 05:47 63.89631 -21.02780 14324 ft 310 kts 264°
2026-05-08 05:47 63.89265 -21.07586 13891 ft 308 kts 264°
2026-05-08 05:47 63.88899 -21.12350 13455 ft 304 kts 264°
2026-05-08 05:48 63.88534 -21.17059 13058 ft 302 kts 264°
2026-05-08 05:48 63.88169 -21.21761 12726 ft 304 kts 264°
2026-05-08 05:48 63.87802 -21.26470 12352 ft 303 kts 264°
2026-05-08 05:48 63.87433 -21.31168 11984 ft 301 kts 264°
2026-05-08 05:49 63.87066 -21.35817 11619 ft 299 kts 264°
2026-05-08 05:49 63.86698 -21.40462 11257 ft 297 kts 264°
2026-05-08 05:49 63.86338 -21.44995 10897 ft 295 kts 264°
2026-05-08 05:49 63.85974 -21.49554 10539 ft 293 kts 264°
2026-05-08 05:50 63.85616 -21.54006 10296 ft 282 kts 263°
2026-05-08 05:50 63.85263 -21.58367 9865 ft 278 kts 264°
2026-05-08 05:50 63.84915 -21.62685 9487 ft 276 kts 264°
2026-05-08 05:50 63.84569 -21.66956 9142 ft 276 kts 264°
2026-05-08 05:51 63.84223 -21.71222 8830 ft 275 kts 264°
2026-05-08 05:51 63.83875 -21.75473 8496 ft 274 kts 264°
2026-05-08 05:51 63.83528 -21.79699 8167 ft 272 kts 264°
2026-05-08 05:51 63.83181 -21.83913 7831 ft 271 kts 264°
2026-05-08 05:52 63.82834 -21.88110 7502 ft 270 kts 264°
2026-05-08 05:52 63.82488 -21.92281 7172 ft 269 kts 264°
2026-05-08 05:52 63.82144 -21.96399 6843 ft 268 kts 264°
2026-05-08 05:52 63.81798 -22.00538 6514 ft 267 kts 264°
2026-05-08 05:53 63.81451 -22.04670 6169 ft 266 kts 264°
2026-05-08 05:53 63.81091 -22.08787 5628 ft 268 kts 261°
2026-05-08 05:53 63.80571 -22.12824 5223 ft 265 kts 256°
2026-05-08 05:53 63.79986 -22.16769 4918 ft 264 kts 256°
2026-05-08 05:54 63.79390 -22.20703 4583 ft 264 kts 256°
2026-05-08 05:54 63.78795 -22.24613 4265 ft 262 kts 256°
2026-05-08 05:54 63.78204 -22.28504 3942 ft 259 kts 256°
2026-05-08 05:54 63.77629 -22.32228 3756 ft 242 kts 253°
2026-05-08 05:55 63.77174 -22.35787 3447 ft 231 kts 263°
2026-05-08 05:55 63.77294 -22.39255 3098 ft 221 kts 294°
2026-05-08 05:55 63.78077 -22.42169 2834 ft 216 kts 311°
2026-05-08 05:55 63.79041 -22.44776 2567 ft 215 kts 313°
2026-05-08 05:56 63.80026 -22.47368 2290 ft 214 kts 313°
2026-05-08 05:56 63.80978 -22.49917 2021 ft 214 kts 312°
2026-05-08 05:56 63.81926 -22.52499 1825 ft 212 kts 312°
2026-05-08 05:56 63.82822 -22.54976 1802 ft 194 kts 312°
2026-05-08 05:57 63.83606 -22.57170 1828 ft 163 kts 311°
2026-05-08 05:57 63.84317 -22.59019 1987 ft 160 kts 319°
2026-05-08 05:57 63.85341 -22.60403 2072 ft 186 kts 342°
2026-05-08 05:57 63.86555 -22.60762 1848 ft 163 kts 357°
2026-05-08 05:58 63.87587 -22.60731 1800 ft 134 kts 359°
2026-05-08 05:58 63.88465 -22.60545 1802 ft 128 kts
2026-05-08 05:58 63.89388 -22.60567 1680 ft 133 kts 356°
2026-05-08 05:58 63.90280 -22.60579 1475 ft 123 kts 358°
2026-05-08 05:59 63.91124 -22.60560 1297 ft 120 kts 356°
2026-05-08 05:59 63.91950 -22.60530 1115 ft 119 kts 357°
2026-05-08 05:59 63.92775 -22.60535 930 ft 120 kts 358°
2026-05-08 05:59 63.93611 -22.60553 761 ft 119 kts 358°
2026-05-08 06:00 63.94439 -22.60544 608 ft 120 kts 356°
2026-05-08 06:00 63.95265 -22.60540 415 ft 119 kts 358°
2026-05-08 06:00 63.96086 -22.60532 285 ft 118 kts 358°
2026-05-08 06:00 63.96877 -22.60542 173 ft 106 kts 356°
2026-05-08 06:01 63.97500 -22.60541 176 ft 66 kts 358°
2026-05-08 06:01 63.97794 -22.60542 175 ft 29 kts 358°
2026-05-08 06:01 63.97993 -22.60542 174 ft 28 kts 359°
2026-05-08 06:01 63.98198 -22.60544 176 ft 31 kts 358°
2026-05-08 06:02 63.98427 -22.60545 177 ft 37 kts 360°
2026-05-08 06:02 63.98708 -22.60542 180 ft 40 kts
2026-05-08 06:02 63.98850 -22.60708 178 ft 20 kts 315°
2026-05-08 06:02 63.98963 -22.60929 175 ft 21 kts 344°
2026-05-08 06:03 63.99112 -22.60938 170 ft 16 kts 360°
2026-05-08 06:03 63.99173 -22.61120 164 ft 18 kts 270°
2026-05-08 06:03 63.99173 -22.61439 157 ft 22 kts 270°
2026-05-08 06:03 63.99173 -22.61832 148 ft 27 kts 269°
2026-05-08 06:04 63.99178 -22.61981 146 ft 1 kts 312°
2026-05-08 06:04 63.99214 -22.61985 146 ft 13 kts
2026-05-08 06:04 63.99333 -22.61988 146 ft 18 kts 359°
2026-05-08 06:04 63.99409 -22.62017 146 ft 0 kts 332°
2026-05-08 06:05 63.99412 -22.62025 146 ft 1 kts 313°
2026-05-08 06:05 63.99415 -22.62041 149 ft 2 kts 285°
2026-05-08 06:05 63.99400 -22.62116 146 ft 8 kts 239°
2026-05-08 06:05 63.99385 -22.62172 146 ft 1 kts 238°
2026-05-08 06:06 63.99384 -22.62177 146 ft 0 kts 238°